createdAt,value
2022-08-21T02:26:56.373Z,20.79
2022-08-21T02:29:24.158Z,20.80
2022-08-21T02:31:51.239Z,20.81
2022-08-21T02:34:18.319Z,20.80
2022-08-21T02:36:45.669Z,20.80
2022-08-21T02:39:27.408Z,20.80
2022-08-21T02:41:55.131Z,20.81
2022-08-21T02:44:22.207Z,20.80
2022-08-21T02:47:02.016Z,20.79
2022-08-21T02:49:29.118Z,20.79
2022-08-21T02:51:56.141Z,20.79
2022-08-21T02:54:23.499Z,20.79
2022-08-21T02:56:50.915Z,20.79
2022-08-21T02:59:18.954Z,20.79
2022-08-21T03:01:46.289Z,20.79
2022-08-21T03:04:13.486Z,20.79
2022-08-21T03:06:40.586Z,20.79
2022-08-21T03:09:08.533Z,20.78
2022-08-21T03:11:37.506Z,20.78
2022-08-21T03:14:06.125Z,20.78
2022-08-21T03:16:35.222Z,20.79
2022-08-21T03:19:04.541Z,20.78
2022-08-21T03:21:31.713Z,20.79
2022-08-21T03:23:59.174Z,20.79
2022-08-21T03:26:30.645Z,20.78
2022-08-21T03:28:58.769Z,20.77
2022-08-21T03:31:31.731Z,20.78
2022-08-21T03:33:59.628Z,20.78
2022-08-21T03:36:26.848Z,20.80
2022-08-21T03:38:55.006Z,20.78
2022-08-21T03:41:22.263Z,20.77
2022-08-21T03:43:49.445Z,20.78
2022-08-21T03:46:16.762Z,20.79
2022-08-21T03:48:44.034Z,20.78
2022-08-21T03:51:11.272Z,20.79
2022-08-21T03:53:39.038Z,20.78
2022-08-21T03:56:06.891Z,20.78
2022-08-21T03:58:34.245Z,20.78
2022-08-21T04:01:04.162Z,20.79
2022-08-21T04:03:31.398Z,20.79
2022-08-21T04:05:58.894Z,20.80
2022-08-21T04:08:26.787Z,20.80
2022-08-21T04:10:57.542Z,20.80
2022-08-21T04:13:24.606Z,20.80
2022-08-21T04:15:52.223Z,20.81
2022-08-21T04:18:19.562Z,20.83
2022-08-21T04:20:52.779Z,20.84
2022-08-21T04:23:23.692Z,20.85
2022-08-21T04:25:57.102Z,20.85
2022-08-21T04:28:29.249Z,20.86
2022-08-21T04:30:58.330Z,20.88
2022-08-21T04:33:26.537Z,20.88
2022-08-21T04:35:54.227Z,20.91
2022-08-21T04:38:21.753Z,20.94
2022-08-21T04:40:51.389Z,20.95
2022-08-21T04:43:20.355Z,20.95
2022-08-21T04:45:50.042Z,20.98
2022-08-21T04:48:24.952Z,20.99
2022-08-21T04:51:00.988Z,21.01
2022-08-21T04:53:48.186Z,21.03
2022-08-21T04:56:50.208Z,21.05
2022-08-21T04:59:25.363Z,21.07
2022-08-21T05:01:55.930Z,21.11
2022-08-21T05:04:31.171Z,21.11
2022-08-21T05:07:04.922Z,21.15
2022-08-21T05:09:33.311Z,21.18
2022-08-21T05:12:04.770Z,21.21
2022-08-21T05:14:32.050Z,21.23
2022-08-21T05:16:59.988Z,21.27
2022-08-21T05:19:27.547Z,21.31
2022-08-21T05:21:55.157Z,21.35
2022-08-21T05:24:22.750Z,21.38
2022-08-21T05:26:49.970Z,21.39
2022-08-21T05:29:18.188Z,21.42
2022-08-21T05:31:47.919Z,21.47
2022-08-21T05:34:20.772Z,21.50
2022-08-21T05:36:48.658Z,21.54
2022-08-21T05:39:16.198Z,21.57
2022-08-21T05:41:43.411Z,21.61
2022-08-21T05:44:11.249Z,21.63
2022-08-21T05:46:39.388Z,21.67
2022-08-21T05:49:06.519Z,21.70
2022-08-21T05:51:33.905Z,21.75
2022-08-21T05:54:01.428Z,21.77
2022-08-21T05:56:28.598Z,21.82
2022-08-21T05:58:56.836Z,21.88
2022-08-21T06:01:24.028Z,21.92
2022-08-21T06:03:51.185Z,21.96
2022-08-21T06:06:18.835Z,21.98
2022-08-21T06:08:46.329Z,22.02
2022-08-21T06:11:13.357Z,22.06
2022-08-21T06:13:40.641Z,22.13
2022-08-21T06:16:15.689Z,22.19
2022-08-21T06:18:46.622Z,22.26
2022-08-21T06:21:14.805Z,22.31
2022-08-21T06:23:43.766Z,22.37
2022-08-21T06:26:15.356Z,22.43
2022-08-21T06:28:44.267Z,22.50
2022-08-21T07:17:45.999Z,23.41
2022-08-21T07:20:14.051Z,23.48
2022-08-21T07:22:42.067Z,23.47
2022-08-21T07:25:09.942Z,23.47
2022-08-21T07:27:37.315Z,23.47
2022-08-21T07:30:07.176Z,23.49
2022-08-21T07:32:34.529Z,23.47
2022-08-21T07:35:01.971Z,23.46
2022-08-21T07:37:29.058Z,23.45
2022-08-21T07:39:57.644Z,23.42
2022-08-21T07:42:25.421Z,23.45
2022-08-21T07:44:56.405Z,23.45
2022-08-21T07:47:41.463Z,23.48
2022-08-21T07:50:12.775Z,23.51
2022-08-21T07:52:42.860Z,23.51
2022-08-21T07:55:24.697Z,23.55
2022-08-21T07:57:52.146Z,23.58
2022-08-21T08:00:27.029Z,23.61
2022-08-21T08:02:55.597Z,23.62
2022-08-21T08:05:28.118Z,23.64
2022-08-21T08:07:56.380Z,23.67
2022-08-21T08:10:25.310Z,23.70
2022-08-21T08:12:55.375Z,23.71
2022-08-21T08:15:27.569Z,23.77
2022-08-21T08:17:55.901Z,23.77
2022-08-21T08:20:27.198Z,23.78
2022-08-21T08:22:55.394Z,23.80
2022-08-21T08:25:24.505Z,23.80
2022-08-21T08:27:51.978Z,23.78
2022-08-21T08:30:21.397Z,23.79
2022-08-21T08:32:49.403Z,23.82
2022-08-21T08:35:17.346Z,23.85
2022-08-21T08:37:46.728Z,23.90
2022-08-21T08:40:52.302Z,24.00
2022-08-21T08:43:20.734Z,23.99
2022-08-21T08:45:54.364Z,24.04
2022-08-21T08:48:52.858Z,24.07
2022-08-21T08:51:38.414Z,24.10
2022-08-21T08:54:14.025Z,24.16
2022-08-21T08:56:41.655Z,24.21
2022-08-21T08:59:21.951Z,24.29
2022-08-21T09:01:50.225Z,24.38
2022-08-21T09:04:28.846Z,24.45
2022-08-21T09:07:35.947Z,24.50
2022-08-21T09:10:24.226Z,24.59
2022-08-21T09:13:24.082Z,24.61
2022-08-21T09:16:41.701Z,24.69
2022-08-21T09:19:36.756Z,24.74
2022-08-21T09:22:34.446Z,24.75
2022-08-21T09:25:23.987Z,24.81
2022-08-21T09:27:52.097Z,24.86
2022-08-21T09:30:29.779Z,24.92
2022-08-21T09:32:57.982Z,24.97
2022-08-21T09:35:26.873Z,25.04
2022-08-21T09:38:07.530Z,25.10
2022-08-21T09:40:47.448Z,25.18
2022-08-21T09:43:28.491Z,25.28
2022-08-21T09:46:22.193Z,25.33
2022-08-21T09:48:54.343Z,25.37
2022-08-21T09:51:35.759Z,25.43
2022-08-21T09:54:08.724Z,25.52
2022-08-21T09:57:12.191Z,25.62
2022-08-21T09:59:40.968Z,25.72
2022-08-21T10:02:33.858Z,25.83
2022-08-21T10:05:17.078Z,25.92
2022-08-21T10:07:44.765Z,26.11
2022-08-21T10:10:24.751Z,26.03
2022-08-21T10:13:19.946Z,25.88
2022-08-21T10:16:22.855Z,25.68
2022-08-21T10:19:06.879Z,25.36
2022-08-21T10:21:59.957Z,25.18
2022-08-21T10:25:00.485Z,25.14
2022-08-21T10:27:57.401Z,25.05
2022-08-21T10:30:40.271Z,24.96
2022-08-21T10:33:17.558Z,24.86
2022-08-21T10:36:07.578Z,24.72
2022-08-21T10:39:26.457Z,24.63
2022-08-21T10:42:34.351Z,24.64
2022-08-21T10:45:16.950Z,24.35
2022-08-21T10:47:57.961Z,24.19
2022-08-21T10:50:54.718Z,24.14
2022-08-21T10:53:46.192Z,24.11
2022-08-21T10:56:32.785Z,24.02
2022-08-21T10:59:35.460Z,24.12
2022-08-21T11:02:29.906Z,24.15
2022-08-21T11:05:17.883Z,24.17
2022-08-21T11:08:13.546Z,24.21
2022-08-21T11:11:09.501Z,24.14
2022-08-21T11:13:48.910Z,24.24
2022-08-21T11:16:46.615Z,24.34
2022-08-21T11:19:28.967Z,24.44
2022-08-21T11:22:12.354Z,24.52
2022-08-21T11:24:59.661Z,24.58
2022-08-21T11:27:39.807Z,24.60
2022-08-21T11:30:09.555Z,24.57
2022-08-21T11:33:20.595Z,24.56
2022-08-21T11:35:51.644Z,24.59
2022-08-21T11:38:42.911Z,24.56
2022-08-21T11:41:33.682Z,24.48
2022-08-21T11:44:33.629Z,24.58
2022-08-21T11:47:14.834Z,24.61
2022-08-21T11:50:18.145Z,24.67
2022-08-21T11:53:20.325Z,24.65
2022-08-21T11:56:03.315Z,24.63
2022-08-21T11:58:42.657Z,24.65
2022-08-21T12:01:20.048Z,24.65
2022-08-21T12:04:05.666Z,24.65
2022-08-21T12:06:40.664Z,24.53
2022-08-21T12:09:32.707Z,24.55
2022-08-21T12:12:24.553Z,24.50
2022-08-21T12:15:20.702Z,24.61
2022-08-21T12:18:06.662Z,24.62
2022-08-21T12:20:50.422Z,24.63
2022-08-21T12:23:28.774Z,24.61
2022-08-21T12:26:48.478Z,24.59
2022-08-21T12:29:32.626Z,24.65
2022-08-21T12:32:42.718Z,24.79
2022-08-21T12:35:25.069Z,24.84
2022-08-21T12:38:18.730Z,24.86
2022-08-21T12:40:58.382Z,24.81
2022-08-21T12:43:47.810Z,24.73
2022-08-21T12:46:32.032Z,24.63
2022-08-21T12:49:15.229Z,24.67
2022-08-21T12:52:21.491Z,24.70
2022-08-21T12:54:48.818Z,24.75
2022-08-21T12:57:28.669Z,24.80
2022-08-21T13:00:01.510Z,24.85
2022-08-21T13:02:40.465Z,24.90
2022-08-21T13:05:14.763Z,24.92
2022-08-21T13:07:49.108Z,24.97
2022-08-21T13:10:30.065Z,25.03
2022-08-21T13:13:02.541Z,25.06
2022-08-21T13:15:47.482Z,25.10
2022-08-21T13:18:31.285Z,25.14
2022-08-21T13:21:12.963Z,25.23
2022-08-21T13:23:41.788Z,25.27
2022-08-21T13:26:22.718Z,25.31
2022-08-21T13:28:51.443Z,25.32
2022-08-21T13:31:32.690Z,25.38
2022-08-21T13:34:00.557Z,25.43
2022-08-21T13:36:35.334Z,25.45
2022-08-21T13:39:07.765Z,25.42
2022-08-21T13:41:39.759Z,25.47
2022-08-21T13:44:22.988Z,25.42
2022-08-21T13:46:51.653Z,25.31
2022-08-21T13:49:28.487Z,25.33
2022-08-21T13:51:55.931Z,25.30
2022-08-21T13:54:38.362Z,25.34
2022-08-21T13:57:17.852Z,25.36
2022-08-21T13:59:45.458Z,25.34
2022-08-21T14:02:19.416Z,25.32
2022-08-21T14:04:57.626Z,25.36
2022-08-21T14:07:42.287Z,25.32
2022-08-21T14:10:23.312Z,25.23
2022-08-21T14:13:02.960Z,25.18
2022-08-21T14:15:35.378Z,25.18
2022-08-21T14:20:45.959Z,25.06
2022-08-21T14:23:28.284Z,24.99
2022-08-21T14:26:02.874Z,24.97
2022-08-21T14:28:40.708Z,24.97
2022-08-21T14:31:21.546Z,24.89
2022-08-21T14:33:50.054Z,24.81
2022-08-21T14:36:17.556Z,24.80
2022-08-21T14:38:44.693Z,24.80
2022-08-21T14:41:25.123Z,24.74
2022-08-21T14:43:59.850Z,24.62
2022-08-21T14:46:36.215Z,24.56
2022-08-21T14:49:06.614Z,24.44
2022-08-21T14:51:34.349Z,24.39
2022-08-21T14:54:01.633Z,24.39
2022-08-21T14:56:29.126Z,24.21
2022-08-21T14:59:08.405Z,24.06
2022-08-21T15:01:38.978Z,23.67
2022-08-21T15:04:06.381Z,23.66
2022-08-21T15:06:33.543Z,23.61
2022-08-21T15:09:02.831Z,23.55
2022-08-21T15:11:42.419Z,23.46
2022-08-21T15:14:21.036Z,23.42
2022-08-21T15:16:49.920Z,23.32
2022-08-21T15:19:17.596Z,23.25
2022-08-21T15:21:44.980Z,23.13
2022-08-21T15:24:12.209Z,23.18
2022-08-21T15:26:39.495Z,23.01
2022-08-21T15:29:09.383Z,22.74
2022-08-21T15:31:53.058Z,22.76
2022-08-21T15:34:21.631Z,22.69
2022-08-21T15:36:57.130Z,22.70
2022-08-21T15:39:31.188Z,22.71
2022-08-21T15:42:01.058Z,22.60
2022-08-21T15:44:42.697Z,22.40
2022-08-21T15:47:19.195Z,22.23
2022-08-21T15:49:46.619Z,22.23
2022-08-21T15:52:17.245Z,22.18
2022-08-21T15:54:44.357Z,21.97
2022-08-21T15:57:17.406Z,21.95
2022-08-21T15:59:49.383Z,22.08
2022-08-21T16:02:25.276Z,22.19
2022-08-21T16:04:52.695Z,22.14
2022-08-21T16:07:20.090Z,22.07
2022-08-21T16:09:47.378Z,21.94
2022-08-21T16:12:24.942Z,21.80
2022-08-21T16:14:54.770Z,21.61
2022-08-21T16:17:29.241Z,21.50
2022-08-21T16:19:58.022Z,21.49
2022-08-21T16:22:25.409Z,21.27
2022-08-21T16:25:13.389Z,21.27
2022-08-21T16:27:44.121Z,21.25
2022-08-21T16:30:13.306Z,21.30
2022-08-21T16:32:41.077Z,21.34
2022-08-21T16:35:13.504Z,21.06
2022-08-21T16:37:41.804Z,20.93
2022-08-21T16:40:10.784Z,20.82
2022-08-21T16:42:40.448Z,20.80
2022-08-21T16:45:11.954Z,20.76
2022-08-21T16:47:39.629Z,20.66
2022-08-21T16:50:08.807Z,20.63
2022-08-21T16:52:36.207Z,20.59
2022-08-21T16:55:05.330Z,20.55
2022-08-21T16:57:32.773Z,20.62
2022-08-21T17:00:00.782Z,20.63
2022-08-21T17:02:37.566Z,20.45
2022-08-21T17:05:06.848Z,20.46
2022-08-21T17:07:42.764Z,20.42
2022-08-21T17:10:13.891Z,20.43
2022-08-21T17:12:46.446Z,20.44
2022-08-21T17:15:29.000Z,20.43
2022-08-21T17:17:56.766Z,20.37
2022-08-21T17:20:24.464Z,20.31
2022-08-21T17:22:51.847Z,20.33
2022-08-21T17:25:20.239Z,20.30
2022-08-21T17:27:49.443Z,20.30
2022-08-21T17:30:18.209Z,20.29
2022-08-21T17:32:48.258Z,20.23
2022-08-21T17:35:16.097Z,20.17
2022-08-21T17:37:43.878Z,20.18
2022-08-21T17:40:15.444Z,20.21
2022-08-21T17:42:46.473Z,20.23
2022-08-21T17:45:18.286Z,20.24
2022-08-21T17:47:45.736Z,20.21
2022-08-21T17:50:15.106Z,20.22
2022-08-21T17:52:46.005Z,20.23
2022-08-21T17:55:17.423Z,20.20
2022-08-21T17:57:48.656Z,20.13
2022-08-21T18:00:18.979Z,20.07
2022-08-21T18:02:51.150Z,20.01
2022-08-21T18:05:18.535Z,20.02
2022-08-21T18:07:45.883Z,20.02
2022-08-21T18:10:13.328Z,19.99
2022-08-21T18:12:44.116Z,20.00
2022-08-21T18:15:16.290Z,19.97
2022-08-21T18:17:50.851Z,19.96
2022-08-21T18:20:22.391Z,19.94
2022-08-21T18:22:50.598Z,19.92
2022-08-21T18:25:18.116Z,19.85
2022-08-21T18:27:48.759Z,19.83
2022-08-21T18:30:22.482Z,19.82
2022-08-21T18:32:54.113Z,19.81
2022-08-21T18:35:22.673Z,19.79
2022-08-21T18:37:49.761Z,19.79
2022-08-21T18:40:17.122Z,19.83
2022-08-21T18:42:55.567Z,19.83
2022-08-21T18:45:24.862Z,19.78
2022-08-21T18:47:55.791Z,19.62
2022-08-21T18:50:27.572Z,19.44
2022-08-21T18:52:56.951Z,19.41
2022-08-21T18:55:24.920Z,19.37
2022-08-21T18:57:55.066Z,19.43
2022-08-21T19:00:28.893Z,19.39
2022-08-21T19:02:57.702Z,19.36
2022-08-21T19:05:25.660Z,19.38
2022-08-21T19:07:56.421Z,19.42
2022-08-21T19:10:28.699Z,19.39
2022-08-21T19:12:59.934Z,19.39
2022-08-21T19:15:28.562Z,19.41
2022-08-21T19:17:58.979Z,19.41
2022-08-21T19:20:36.785Z,19.36
2022-08-21T19:23:07.426Z,19.28
2022-08-21T19:25:37.469Z,19.23
2022-08-21T19:28:13.758Z,19.27
2022-08-21T19:30:53.519Z,19.27
2022-08-21T19:33:29.841Z,19.24
2022-08-21T19:35:59.165Z,19.26
2022-08-21T19:38:27.882Z,19.24
2022-08-21T19:40:57.249Z,19.25
2022-08-21T19:43:24.922Z,19.25
2022-08-21T19:45:56.922Z,19.24
2022-08-21T19:48:26.255Z,19.21
2022-08-21T19:50:53.530Z,19.17
2022-08-21T19:53:21.525Z,19.14
2022-08-21T19:55:49.222Z,19.10
2022-08-21T19:58:40.279Z,19.09
2022-08-21T20:01:12.502Z,19.09
2022-08-21T20:03:54.170Z,19.09
2022-08-21T20:06:24.337Z,19.07
2022-08-21T20:08:54.670Z,19.02
2022-08-21T20:11:34.382Z,19.01
2022-08-21T20:14:02.675Z,18.97
2022-08-21T20:16:31.166Z,18.99
2022-08-21T20:18:59.087Z,18.97
2022-08-21T20:21:26.649Z,18.93
2022-08-21T20:23:54.008Z,18.94
2022-08-21T20:26:22.826Z,18.93
2022-08-21T20:31:38.275Z,18.97
2022-08-21T20:34:08.371Z,18.97
2022-08-21T20:36:35.366Z,18.93
2022-08-21T20:39:09.218Z,18.84
2022-08-21T20:41:38.611Z,18.84
2022-08-21T20:44:12.784Z,18.85
2022-08-21T20:46:40.421Z,18.86
2022-08-21T20:49:09.338Z,18.88
2022-08-21T20:51:44.768Z,18.86
2022-08-21T20:54:30.524Z,18.75
2022-08-21T20:57:14.898Z,18.57
2022-08-21T20:59:52.019Z,18.48
2022-08-21T21:02:43.079Z,18.53
2022-08-21T21:05:28.129Z,18.60
2022-08-21T21:08:25.293Z,18.66
2022-08-21T21:11:05.950Z,18.67
2022-08-21T21:13:57.411Z,18.67
2022-08-21T21:16:50.809Z,18.66
2022-08-21T21:19:46.495Z,18.66
2022-08-21T21:22:21.783Z,18.67
2022-08-21T21:25:12.926Z,18.62
2022-08-21T21:27:50.525Z,18.55
2022-08-21T21:30:34.694Z,18.51
2022-08-21T21:33:04.501Z,18.53
2022-08-21T21:39:07.586Z,18.59
2022-08-21T21:41:56.758Z,18.58
2022-08-21T21:44:47.525Z,18.59
2022-08-21T21:47:32.515Z,18.57
2022-08-21T21:50:34.571Z,18.52
2022-08-21T21:53:53.167Z,18.53
2022-08-21T21:57:14.016Z,18.53
2022-08-21T22:00:00.758Z,18.50
2022-08-21T22:03:16.783Z,18.50
2022-08-21T22:06:35.802Z,18.51
2022-08-21T22:09:48.778Z,18.52
2022-08-21T22:12:28.146Z,18.49
2022-08-21T22:14:56.109Z,18.50
2022-08-21T22:17:50.194Z,18.47
2022-08-21T22:20:30.189Z,18.47
2022-08-21T22:23:00.714Z,18.48
2022-08-21T22:25:36.315Z,18.47
2022-08-21T22:28:25.527Z,18.45
2022-08-21T22:31:12.906Z,18.44
2022-08-21T22:33:42.230Z,18.43
2022-08-21T22:36:21.434Z,18.43
2022-08-21T22:38:48.533Z,18.43
2022-08-21T22:41:31.970Z,18.42
2022-08-21T22:44:06.985Z,18.40
2022-08-21T22:46:55.523Z,18.41
2022-08-21T22:49:44.109Z,18.40
2022-08-21T22:52:31.739Z,18.41
2022-08-21T22:55:17.802Z,18.40
2022-08-21T22:58:11.007Z,18.38
2022-08-21T23:01:12.067Z,18.35
2022-08-21T23:03:48.427Z,18.27
2022-08-21T23:06:46.695Z,18.28
2022-08-21T23:09:50.136Z,18.29
2022-08-21T23:12:36.354Z,18.32
2022-08-21T23:15:18.093Z,18.30
2022-08-21T23:18:31.696Z,18.30
2022-08-21T23:21:44.830Z,18.29
2022-08-21T23:24:46.614Z,18.29
2022-08-21T23:28:07.422Z,18.29
2022-08-21T23:31:28.378Z,18.29
2022-08-21T23:34:45.166Z,18.29
2022-08-21T23:37:48.832Z,18.29
2022-08-21T23:43:54.307Z,18.27
2022-08-21T23:46:45.838Z,18.29
2022-08-21T23:49:53.894Z,18.27
2022-08-21T23:52:42.797Z,18.28
2022-08-21T23:56:05.135Z,18.28
2022-08-21T23:58:44.002Z,18.27
